createdAt,value
2022-11-05T00:00:36.143Z,100531.69
2022-11-05T00:03:21.559Z,100531.69
2022-11-05T00:06:11.624Z,100518.06
2022-11-05T00:08:58.415Z,100514.91
2022-11-05T00:11:45.209Z,100508.56
2022-11-05T00:14:30.892Z,100517.47
2022-11-05T00:16:57.641Z,100513.09
2022-11-05T00:19:24.378Z,100498.47
2022-11-05T00:22:09.985Z,100493.78
2022-11-05T00:24:55.262Z,100491.78
2022-11-05T00:27:21.938Z,100493.38
2022-11-05T00:29:49.007Z,100501.59
2022-11-05T00:32:18.831Z,100502.28
2022-11-05T00:34:45.807Z,100497.72
2022-11-05T00:37:12.595Z,100493.19
2022-11-05T00:39:39.377Z,100495.72
2022-11-05T00:42:25.266Z,100491.03
2022-11-05T00:45:01.244Z,100485.66
2022-11-05T00:47:47.032Z,100491.44
2022-11-05T00:50:14.452Z,100497.28
2022-11-05T00:52:56.109Z,100492.00
2022-11-05T00:55:42.543Z,100501.75
2022-11-05T00:58:18.508Z,100495.53
2022-11-05T01:00:57.663Z,100496.63
2022-11-05T01:03:34.181Z,100485.84
2022-11-05T01:06:16.005Z,100479.84
2022-11-05T01:08:45.395Z,100470.78
2022-11-05T01:11:33.697Z,100475.84
2022-11-05T01:14:08.248Z,100477.00
2022-11-05T01:16:35.764Z,100476.16
2022-11-05T01:19:04.088Z,100476.03
2022-11-05T01:21:30.883Z,100476.53
2022-11-05T01:23:57.894Z,100473.00
2022-11-05T01:26:24.671Z,100469.31
2022-11-05T01:28:56.727Z,100469.31
2022-11-05T01:31:25.124Z,100455.16
2022-11-05T01:33:52.185Z,100468.09
2022-11-05T01:36:19.157Z,100465.94
2022-11-05T01:38:46.238Z,100469.47
2022-11-05T01:41:13.018Z,100473.34
2022-11-05T01:43:48.918Z,100469.41
2022-11-05T01:46:39.149Z,100474.09
2022-11-05T01:49:32.420Z,100473.16
2022-11-05T01:52:03.342Z,100469.63
2022-11-05T01:54:32.345Z,100462.38
2022-11-05T01:57:04.915Z,100459.13
2022-11-05T01:59:43.306Z,100455.47
2022-11-05T02:02:10.634Z,100459.97
2022-11-05T02:04:47.581Z,100451.34
2022-11-05T02:07:15.088Z,100457.59
2022-11-05T02:09:54.660Z,100444.97
2022-11-05T02:12:23.310Z,100456.72
2022-11-05T02:14:50.103Z,100461.81
2022-11-05T02:17:19.773Z,100456.59
2022-11-05T02:20:23.710Z,100449.34
2022-11-05T02:23:29.944Z,100456.03
2022-11-05T02:26:12.327Z,100444.69
2022-11-05T02:29:00.657Z,100446.50
2022-11-05T02:31:37.100Z,100451.59
2022-11-05T02:34:35.899Z,100449.88
2022-11-05T02:37:24.758Z,100449.88
2022-11-05T02:40:25.323Z,100451.53
2022-11-05T02:43:20.874Z,100439.28
2022-11-05T02:46:17.459Z,100435.44
2022-11-05T02:49:07.702Z,100437.13
2022-11-05T02:51:59.633Z,100426.53
2022-11-05T02:54:46.009Z,100418.44
2022-11-05T02:57:13.175Z,100412.44
2022-11-05T02:59:39.928Z,100423.22
2022-11-05T03:02:07.390Z,100423.59
2022-11-05T03:04:34.400Z,100418.91
2022-11-05T03:07:07.033Z,100414.84
2022-11-05T03:09:54.990Z,100423.13
2022-11-05T03:12:39.814Z,100428.22
2022-11-05T03:15:09.653Z,100421.38
2022-11-05T03:18:06.611Z,100412.28
2022-11-05T03:21:05.245Z,100406.25
2022-11-05T03:23:44.605Z,100413.06
2022-11-05T03:26:33.285Z,100401.94
2022-11-05T03:29:06.930Z,100403.31
2022-11-05T03:31:36.655Z,100404.19
2022-11-05T03:34:05.971Z,100402.19
2022-11-05T03:36:41.439Z,100391.06
2022-11-05T03:39:15.757Z,100395.31
2022-11-05T03:41:47.861Z,100398.91
2022-11-05T03:44:24.194Z,100393.69
2022-11-05T03:46:57.555Z,100391.50
2022-11-05T03:49:43.448Z,100394.72
2022-11-05T03:52:17.850Z,100392.72
2022-11-05T03:54:44.921Z,100388.06
2022-11-05T03:57:35.521Z,100380.94
2022-11-05T04:00:07.142Z,100386.88
2022-11-05T04:02:34.173Z,100381.63
2022-11-05T04:05:01.096Z,100384.50
2022-11-05T04:07:46.467Z,100385.72
2022-11-05T04:10:31.571Z,100372.72
2022-11-05T04:13:16.791Z,100375.94
2022-11-05T04:16:01.953Z,100368.00
2022-11-05T04:18:28.788Z,100369.88
2022-11-05T04:21:14.075Z,100370.16
2022-11-05T04:23:59.685Z,100362.47
2022-11-05T04:26:26.435Z,100362.13
2022-11-05T04:29:11.762Z,100354.22
2022-11-05T04:31:38.723Z,100357.38
2022-11-05T04:34:05.617Z,100359.44
2022-11-05T04:36:32.415Z,100349.31
2022-11-05T04:38:59.419Z,100346.63
2022-11-05T04:41:26.688Z,100357.94
2022-11-05T04:43:53.411Z,100349.84
2022-11-05T04:46:20.226Z,100348.19
2022-11-05T04:48:46.984Z,100350.34
2022-11-05T04:51:13.769Z,100344.31
2022-11-05T04:53:40.535Z,100339.94
2022-11-05T04:56:19.437Z,100342.78
2022-11-05T04:58:46.752Z,100338.22
2022-11-05T05:01:20.871Z,100347.00
2022-11-05T05:03:49.175Z,100345.47
2022-11-05T05:06:17.157Z,100344.94
2022-11-05T05:08:43.965Z,100343.94
2022-11-05T05:11:13.346Z,100331.16
2022-11-05T05:13:40.383Z,100337.84
2022-11-05T05:16:10.439Z,100336.19
2022-11-05T05:18:39.869Z,100333.84
2022-11-05T05:21:29.129Z,100331.16
2022-11-05T05:23:55.771Z,100328.94
2022-11-05T05:26:22.578Z,100326.75
2022-11-05T05:28:49.327Z,100323.38
2022-11-05T05:31:16.050Z,100328.28
2022-11-05T05:33:42.792Z,100320.03
2022-11-05T05:36:11.472Z,100328.97
2022-11-05T05:38:38.446Z,100326.13
2022-11-05T05:41:05.414Z,100316.66
2022-11-05T05:43:33.909Z,100318.69
2022-11-05T05:46:05.852Z,100308.94
2022-11-05T05:48:32.633Z,100307.06
2022-11-05T05:51:07.634Z,100311.28
2022-11-05T05:53:34.777Z,100305.28
2022-11-05T05:56:01.920Z,100303.03
2022-11-05T05:58:38.109Z,100296.66
2022-11-05T06:01:18.383Z,100303.19
2022-11-05T06:03:46.187Z,100302.56
2022-11-05T06:06:14.998Z,100298.84
2022-11-05T06:08:42.930Z,100298.19
2022-11-05T06:11:10.068Z,100296.84
2022-11-05T06:13:37.845Z,100288.75
2022-11-05T06:16:08.485Z,100286.06
2022-11-05T06:18:36.021Z,100292.31
2022-11-05T06:21:08.324Z,100284.03
2022-11-05T06:23:38.108Z,100284.03
2022-11-05T06:26:09.926Z,100279.50
2022-11-05T06:28:36.739Z,100273.75
2022-11-05T06:31:04.278Z,100277.34
2022-11-05T06:33:31.509Z,100275.78
2022-11-05T06:35:59.900Z,100278.00
2022-11-05T06:38:27.556Z,100283.41
2022-11-05T06:40:54.303Z,100279.69
2022-11-05T06:43:21.066Z,100279.38
2022-11-05T06:45:47.840Z,100274.97
2022-11-05T06:48:14.781Z,100279.38
2022-11-05T06:50:45.419Z,100277.66
2022-11-05T06:53:13.721Z,100281.03
2022-11-05T06:55:40.986Z,100271.97
2022-11-05T06:58:07.899Z,100277.66
2022-11-05T07:00:34.705Z,100274.34
2022-11-05T07:03:07.091Z,100272.78
2022-11-05T07:05:37.753Z,100266.41
2022-11-05T07:08:04.745Z,100270.78
2022-11-05T07:10:31.878Z,100272.13
2022-11-05T07:13:02.411Z,100264.22
2022-11-05T07:15:32.008Z,100264.22
2022-11-05T07:18:00.423Z,100254.78
2022-11-05T07:20:32.422Z,100247.16
2022-11-05T07:23:07.093Z,100245.34
2022-11-05T07:25:34.516Z,100256.47
2022-11-05T07:28:02.325Z,100245.66
2022-11-05T07:30:30.062Z,100238.25
2022-11-05T07:32:57.011Z,100236.25
2022-11-05T07:35:24.129Z,100232.53
2022-11-05T07:37:54.156Z,100231.53
2022-11-05T07:40:23.779Z,100228.66
2022-11-05T07:42:53.967Z,100233.56
2022-11-05T07:45:21.410Z,100237.09
2022-11-05T07:47:58.242Z,100238.13
2022-11-05T07:50:29.727Z,100230.19
2022-11-05T07:53:10.353Z,100226.28
2022-11-05T07:55:38.230Z,100216.69
2022-11-05T07:58:04.993Z,100217.22
2022-11-05T08:00:33.549Z,100214.34
2022-11-05T08:03:08.993Z,100215.69
2022-11-05T08:05:39.427Z,100216.22
2022-11-05T08:08:10.769Z,100205.75
2022-11-05T08:10:38.532Z,100196.78
2022-11-05T08:13:06.982Z,100194.09
2022-11-05T08:15:34.960Z,100185.81
2022-11-05T08:18:08.122Z,100180.91
2022-11-05T08:20:36.121Z,100188.38
2022-11-05T08:23:03.025Z,100185.34
2022-11-05T08:25:31.883Z,100181.63
2022-11-05T08:28:02.025Z,100178.56
2022-11-05T08:30:29.962Z,100167.44
2022-11-05T08:32:59.522Z,100165.41
2022-11-05T08:35:27.742Z,100168.78
2022-11-05T08:38:03.215Z,100163.38
2022-11-05T08:40:33.300Z,100169.13
2022-11-05T08:43:02.780Z,100174.19
2022-11-05T08:45:30.352Z,100164.56
2022-11-05T08:48:07.092Z,100162.31
2022-11-05T08:50:34.557Z,100145.09
2022-11-05T08:53:01.632Z,100127.53
2022-11-05T08:55:29.166Z,100120.44
2022-11-05T08:58:03.722Z,100120.59
2022-11-05T09:00:34.367Z,100128.53
2022-11-05T09:03:05.259Z,100121.06
2022-11-05T09:05:37.938Z,100122.78
2022-11-05T09:08:11.461Z,100120.38
2022-11-05T09:10:38.980Z,100116.66
2022-11-05T09:13:06.694Z,100107.19
2022-11-05T09:15:35.728Z,100109.06
2022-11-05T09:18:05.840Z,100105.31
2022-11-05T09:20:33.930Z,100101.22
2022-11-05T09:23:00.750Z,100097.69
2022-11-05T09:25:27.639Z,100085.72
2022-11-05T09:27:54.414Z,100080.41
2022-11-05T09:30:21.161Z,100067.22
2022-11-05T09:32:48.366Z,100064.13
2022-11-05T09:35:15.179Z,100062.78
2022-11-05T09:37:41.986Z,100056.16
2022-11-05T09:40:17.144Z,100049.03
2022-11-05T09:42:52.510Z,100051.16
2022-11-05T09:45:23.446Z,100056.84
2022-11-05T09:48:06.186Z,100052.22
2022-11-05T09:50:40.655Z,100053.69
2022-11-05T09:53:10.258Z,100054.84
2022-11-05T09:55:42.322Z,100049.06
2022-11-05T09:58:29.575Z,100052.63
2022-11-05T10:00:58.356Z,100045.34
2022-11-05T10:03:28.669Z,100055.81
2022-11-05T10:06:07.698Z,100041.91
2022-11-05T10:08:42.364Z,100049.00
2022-11-05T10:11:17.746Z,100035.59
2022-11-05T10:13:53.277Z,100035.22
2022-11-05T10:16:36.798Z,100028.59
2022-11-05T10:19:24.732Z,100034.56
2022-11-05T10:22:07.157Z,100024.31
2022-11-05T10:24:35.004Z,100015.16
2022-11-05T10:27:02.210Z,100006.69
2022-11-05T10:29:32.628Z,99994.25
2022-11-05T10:32:03.847Z,99978.84
2022-11-05T10:34:37.422Z,99987.44
2022-11-05T10:37:04.625Z,99976.72
2022-11-05T10:39:34.113Z,99962.78
2022-11-05T10:42:24.606Z,99966.91
2022-11-05T10:44:51.285Z,99961.78
2022-11-05T10:47:43.849Z,99973.91
2022-11-05T10:50:30.648Z,99961.19
2022-11-05T10:53:01.913Z,99967.41
2022-11-05T10:55:40.186Z,99973.47
2022-11-05T10:58:32.395Z,99982.44
2022-11-05T11:00:59.215Z,99980.19
2022-11-05T11:03:42.586Z,99984.38
2022-11-05T11:06:28.301Z,99983.53
2022-11-05T11:08:58.294Z,99989.34
2022-11-05T11:11:41.118Z,99975.22
2022-11-05T11:14:14.373Z,99979.63
2022-11-05T11:16:47.445Z,99973.53
2022-11-05T11:19:28.667Z,99970.66
2022-11-05T11:22:04.547Z,99935.25
2022-11-05T11:24:54.171Z,99926.34
2022-11-05T11:27:28.796Z,99914.09
2022-11-05T11:29:59.801Z,99915.59
2022-11-05T11:32:39.610Z,99920.63
2022-11-05T11:35:25.065Z,99929.03
2022-11-05T11:37:56.156Z,99930.06
2022-11-05T11:40:30.913Z,99916.75
2022-11-05T11:43:05.271Z,99926.78
2022-11-05T11:45:36.495Z,99906.56
2022-11-05T11:48:07.153Z,99894.50
2022-11-05T11:50:33.927Z,99903.03
2022-11-05T11:53:20.499Z,99898.44
2022-11-05T11:55:56.561Z,99905.28
2022-11-05T11:58:55.670Z,99890.50
2022-11-05T12:01:48.994Z,99887.16
2022-11-05T12:04:43.674Z,99885.56
2022-11-05T12:07:28.315Z,99881.78
2022-11-05T12:10:11.306Z,99871.41
2022-11-05T12:13:18.296Z,99870.16
2022-11-05T12:16:13.044Z,99863.09
2022-11-05T12:19:15.194Z,99864.38
2022-11-05T12:22:22.062Z,99856.03
2022-11-05T12:25:36.416Z,99841.69
2022-11-05T12:29:16.557Z,99845.66
2022-11-05T12:31:55.421Z,99840.72
2022-11-05T12:35:10.837Z,99824.72
2022-11-05T12:37:56.046Z,99828.97
2022-11-05T12:40:56.424Z,99825.66
2022-11-05T12:43:51.503Z,99828.81
2022-11-05T12:46:32.332Z,99835.50
2022-11-05T12:49:02.407Z,99817.78
2022-11-05T12:52:21.258Z,99803.84
2022-11-05T12:55:17.158Z,99813.06
2022-11-05T12:57:46.234Z,99807.63
2022-11-05T13:00:25.689Z,99790.75
2022-11-05T13:03:30.491Z,99789.34
2022-11-05T13:06:09.306Z,99778.06
2022-11-05T13:08:44.517Z,99787.25
2022-11-05T13:11:26.671Z,99785.19
2022-11-05T13:14:08.561Z,99772.69
2022-11-05T13:16:40.852Z,99785.41
2022-11-05T13:19:24.687Z,99773.31
2022-11-05T13:22:09.752Z,99782.91
2022-11-05T13:24:49.432Z,99773.13
2022-11-05T13:27:19.059Z,99777.72
2022-11-05T13:29:53.060Z,99770.84
2022-11-05T13:32:38.666Z,99768.34
2022-11-05T13:35:15.176Z,99763.09
2022-11-05T13:38:04.166Z,99765.81
2022-11-05T13:41:00.274Z,99763.09
2022-11-05T13:43:48.458Z,99754.81
2022-11-05T13:46:27.359Z,99754.19
2022-11-05T13:49:00.090Z,99757.09
2022-11-05T13:51:44.666Z,99752.28
2022-11-05T13:54:38.351Z,99755.88
2022-11-05T13:57:31.431Z,99748.63
2022-11-05T14:00:11.558Z,99748.19
2022-11-05T14:03:04.061Z,99739.03
2022-11-05T14:05:34.757Z,99736.31
2022-11-05T14:08:13.415Z,99725.69
2022-11-05T14:11:01.429Z,99729.22
2022-11-05T14:13:44.286Z,99726.91
2022-11-05T14:16:21.613Z,99719.19
2022-11-05T14:19:20.772Z,99718.38
2022-11-05T14:21:58.605Z,99719.84
2022-11-05T14:24:43.488Z,99721.97
2022-11-05T14:27:41.357Z,99715.25
2022-11-05T14:30:42.238Z,99711.91
2022-11-05T14:33:30.487Z,99714.00
2022-11-05T14:36:20.396Z,99703.13
2022-11-05T14:38:53.795Z,99696.22
2022-11-05T14:41:21.766Z,99689.75
2022-11-05T14:44:05.179Z,99690.78
2022-11-05T14:46:49.345Z,99692.25
2022-11-05T14:49:22.330Z,99689.13
2022-11-05T14:52:00.447Z,99691.00
2022-11-05T14:54:50.335Z,99675.09
2022-11-05T14:57:42.935Z,99673.44
2022-11-05T15:00:40.775Z,99669.03
2022-11-05T15:03:41.106Z,99676.16
2022-11-05T15:06:22.277Z,99668.84
2022-11-05T15:08:48.988Z,99676.38
2022-11-05T15:11:29.560Z,99672.59
2022-11-05T15:14:05.888Z,99673.88
2022-11-05T15:16:50.751Z,99673.88
2022-11-05T15:19:28.037Z,99671.78
2022-11-05T15:22:00.989Z,99670.13
2022-11-05T15:24:28.417Z,99681.81
2022-11-05T15:27:27.108Z,99675.75
2022-11-05T15:29:54.013Z,99676.56
2022-11-05T15:32:26.666Z,99675.97
2022-11-05T15:34:56.156Z,99668.22
2022-11-05T15:37:26.717Z,99667.41
2022-11-05T15:39:55.558Z,99668.84
2022-11-05T15:42:27.168Z,99668.44
2022-11-05T15:44:59.588Z,99669.50
2022-11-05T15:47:34.242Z,99678.03
2022-11-05T15:50:14.898Z,99678.03
2022-11-05T15:52:51.830Z,99670.09
2022-11-05T15:55:24.189Z,99673.88
2022-11-05T15:57:58.994Z,99669.69
2022-11-05T16:00:29.543Z,99663.84
2022-11-05T16:03:17.765Z,99668.22
2022-11-05T16:05:47.968Z,99670.31
2022-11-05T16:08:22.603Z,99669.69
2022-11-05T16:10:53.312Z,99674.28
2022-11-05T16:13:33.815Z,99667.19
2022-11-05T16:16:26.283Z,99682.22
2022-11-05T16:18:53.126Z,99688.47
2022-11-05T16:21:23.301Z,99681.59
2022-11-05T16:23:50.044Z,99677.41
2022-11-05T16:29:52.970Z,99678.84
2022-11-05T16:32:31.782Z,99677.38
2022-11-05T16:35:05.737Z,99684.91
2022-11-05T16:37:41.851Z,99680.75
2022-11-05T16:40:20.646Z,99684.28
2022-11-05T16:42:48.723Z,99684.28
2022-11-05T16:45:18.954Z,99694.06
2022-11-05T16:47:46.306Z,99699.28
2022-11-05T16:50:18.583Z,99698.41
2022-11-05T16:52:46.662Z,99701.38
2022-11-05T16:55:15.693Z,99707.44
2022-11-05T16:57:47.143Z,99710.59
2022-11-05T17:00:17.495Z,99713.09
2022-11-05T17:02:45.478Z,99708.47
2022-11-05T17:05:24.966Z,99710.59
2022-11-05T17:07:53.020Z,99717.22
2022-11-05T17:10:21.851Z,99721.16
2022-11-05T17:12:48.926Z,99716.38
2022-11-05T17:15:31.890Z,99729.47
2022-11-05T17:17:59.629Z,99733.66
2022-11-05T17:20:38.277Z,99738.84
2022-11-05T17:23:09.132Z,99748.25
2022-11-05T17:25:36.556Z,99744.72
2022-11-05T17:28:04.162Z,99742.78
2022-11-05T17:30:31.402Z,99751.34
2022-11-05T17:32:59.082Z,99772.41
2022-11-05T17:35:26.957Z,99768.63
2022-11-05T17:37:54.294Z,99786.31
2022-11-05T17:40:23.574Z,99784.66
2022-11-05T17:42:52.008Z,99790.47
2022-11-05T17:45:19.055Z,99791.31
2022-11-05T17:47:46.357Z,99800.88
2022-11-05T17:50:15.975Z,99794.19
2022-11-05T17:52:42.982Z,99793.09
2022-11-05T17:55:16.853Z,99799.91
2022-11-05T17:57:50.520Z,99799.59
2022-11-05T18:00:23.392Z,99808.91
2022-11-05T18:02:53.418Z,99801.75
2022-11-05T18:05:22.882Z,99804.34
2022-11-05T18:07:50.177Z,99791.19
2022-11-05T18:10:17.836Z,99794.03
2022-11-05T18:12:45.384Z,99795.19
2022-11-05T18:15:13.043Z,99801.75
2022-11-05T18:17:39.910Z,99812.03
2022-11-05T18:20:12.836Z,99812.34
2022-11-05T18:22:43.518Z,99814.50
2022-11-05T18:25:12.065Z,99816.22
2022-11-05T18:27:40.198Z,99820.69
2022-11-05T18:30:08.989Z,99818.09
2022-11-05T18:32:36.177Z,99826.69
2022-11-05T18:35:03.278Z,99835.75
2022-11-05T18:37:30.179Z,99836.69
2022-11-05T18:39:57.039Z,99831.34
2022-11-05T18:42:24.917Z,99822.13
2022-11-05T18:44:51.770Z,99831.25
2022-11-05T18:47:18.526Z,99831.44
2022-11-05T18:49:45.302Z,99827.91
2022-11-05T18:52:12.220Z,99827.06
2022-11-05T18:54:39.138Z,99824.53
2022-11-05T18:57:06.251Z,99824.72
2022-11-05T18:59:38.734Z,99827.59
2022-11-05T19:02:08.825Z,99829.00
2022-11-05T19:04:37.018Z,99836.81
2022-11-05T19:07:05.760Z,99836.34
2022-11-05T19:09:38.164Z,99838.47
2022-11-05T19:12:07.291Z,99837.84
2022-11-05T19:14:35.463Z,99827.75
2022-11-05T19:17:02.642Z,99831.00
2022-11-05T19:19:29.494Z,99837.59
2022-11-05T19:21:56.809Z,99835.63
2022-11-05T19:24:23.742Z,99847.63
2022-11-05T19:26:50.742Z,99843.78
2022-11-05T19:29:18.294Z,99848.53
2022-11-05T19:31:45.720Z,99848.88
2022-11-05T19:34:13.651Z,99846.75
2022-11-05T19:36:42.443Z,99840.84
2022-11-05T19:39:15.061Z,99843.25
2022-11-05T19:41:42.291Z,99830.63
2022-11-05T19:44:09.314Z,99825.13
2022-11-05T19:46:36.190Z,99832.88
2022-11-05T19:49:03.356Z,99827.19
2022-11-05T19:51:32.436Z,99826.88
2022-11-05T19:54:01.615Z,99831.13
2022-11-05T19:56:32.468Z,99826.09
2022-11-05T19:59:00.796Z,99827.94
2022-11-05T20:01:29.720Z,99823.94
2022-11-05T20:03:59.108Z,99830.69
2022-11-05T20:06:32.067Z,99832.91
2022-11-05T20:11:50.124Z,99832.09
2022-11-05T20:14:17.373Z,99839.88
2022-11-05T20:16:46.582Z,99840.59
2022-11-05T20:19:17.469Z,99843.81
2022-11-05T20:21:44.785Z,99837.28
2022-11-05T20:24:18.628Z,99832.53
2022-11-05T20:26:49.364Z,99837.66
2022-11-05T20:29:16.389Z,99848.09
2022-11-05T20:31:43.281Z,99846.78
2022-11-05T20:34:10.614Z,99844.41
2022-11-05T20:36:37.455Z,99839.34
2022-11-05T20:39:05.831Z,99840.56
2022-11-05T20:41:33.322Z,99839.22
2022-11-05T20:44:00.138Z,99835.84
2022-11-05T20:46:27.359Z,99826.22
2022-11-05T20:48:54.539Z,99828.25
2022-11-05T20:51:23.330Z,99836.06
2022-11-05T20:53:55.823Z,99844.63
2022-11-05T20:56:30.253Z,99843.13
2022-11-05T20:58:59.164Z,99835.38
2022-11-05T21:01:29.390Z,99832.19
2022-11-05T21:03:57.344Z,99825.44
2022-11-05T21:06:24.150Z,99828.69
2022-11-05T21:08:52.353Z,99823.59
2022-11-05T21:11:20.229Z,99821.25
2022-11-05T21:13:47.509Z,99825.28
2022-11-05T21:16:18.429Z,99828.16
2022-11-05T21:18:46.251Z,99836.25
2022-11-05T21:21:19.558Z,99831.03
2022-11-05T21:23:46.453Z,99840.97
2022-11-05T21:26:15.131Z,99838.47
2022-11-05T21:28:41.974Z,99842.97
2022-11-05T21:31:09.678Z,99836.09
2022-11-05T21:33:37.650Z,99843.34
2022-11-05T21:36:11.803Z,99843.00
2022-11-05T21:38:39.524Z,99841.28
2022-11-05T21:41:08.309Z,99836.09
2022-11-05T21:43:35.390Z,99835.41
2022-11-05T21:46:04.715Z,99828.50
2022-11-05T21:48:32.603Z,99829.53
2022-11-05T21:51:17.987Z,99825.31
2022-11-05T21:54:03.222Z,99822.47
2022-11-05T21:56:49.316Z,99812.00
2022-11-05T21:59:38.750Z,99816.88
2022-11-05T22:02:08.385Z,99824.28
2022-11-05T22:04:41.936Z,99821.09
2022-11-05T22:07:11.264Z,99820.59
2022-11-05T22:09:38.407Z,99824.31
2022-11-05T22:12:05.872Z,99816.53
2022-11-05T22:14:33.009Z,99827.63
2022-11-05T22:17:00.529Z,99821.78
2022-11-05T22:19:28.033Z,99813.19
2022-11-05T22:21:54.830Z,99814.19
2022-11-05T22:24:21.942Z,99806.44
2022-11-05T22:26:49.590Z,99811.13
2022-11-05T22:29:17.290Z,99807.09
2022-11-05T22:31:44.255Z,99800.03
2022-11-05T22:34:11.684Z,99797.66
2022-11-05T22:36:39.147Z,99797.81
2022-11-05T22:39:06.287Z,99797.31
2022-11-05T22:41:33.398Z,99793.44
2022-11-05T22:44:00.281Z,99784.84
2022-11-05T22:46:27.797Z,99793.28
2022-11-05T22:48:56.398Z,99796.28
2022-11-05T22:51:30.612Z,99787.53
2022-11-05T22:53:58.933Z,99787.16
2022-11-05T22:56:29.994Z,99777.41
2022-11-05T22:58:57.524Z,99781.28
2022-11-05T23:01:24.957Z,99784.13
2022-11-05T23:03:55.828Z,99767.31
2022-11-05T23:06:50.314Z,99781.75
2022-11-05T23:09:50.389Z,99776.00
2022-11-05T23:12:34.114Z,99767.63
2022-11-05T23:15:05.803Z,99765.25
2022-11-05T23:17:51.129Z,99766.22
2022-11-05T23:20:41.970Z,99762.53
2022-11-05T23:23:31.974Z,99758.81
2022-11-05T23:26:00.390Z,99762.69
2022-11-05T23:28:27.329Z,99761.34
2022-11-05T23:31:12.509Z,99756.28
2022-11-05T23:33:39.283Z,99762.16
2022-11-05T23:36:24.986Z,99750.88
2022-11-05T23:38:51.888Z,99745.97
2022-11-05T23:41:37.726Z,99737.38
2022-11-05T23:44:23.519Z,99740.56
2022-11-05T23:47:08.893Z,99737.69
2022-11-05T23:49:35.838Z,99738.16
2022-11-05T23:52:02.648Z,99741.16
2022-11-05T23:54:29.645Z,99746.72
2022-11-05T23:56:56.396Z,99753.25
2022-11-05T23:59:23.209Z,99746.50
